Erin, Tennessee
Current Conditions -  °F | °C
As of 11:52 AM on Thursday 29 Jan 2015 (Local Time) from KCKV Reporting Station
Overcast Overcast  
Wind Chill: 61°   Ceiling: 4500
Heat Index: 61°   Visibility: 10mi
Dew Point: 42°   Wind: 15mph
Humidity: 50%   Direction: 290°WNW
Pressure: 30.02"   Gusts: 24mph
Location:  36.32°N, 87.69°W
Report Text: KCKV 291752Z AUTO 29013G21KT 10SM OVC045 16/06 A3002 RMK AO2 SLP164 T01610056 10178 20100 50009
Loading
Personal Weather Stations






























Interactive Weather Map New forecast layout! Learn more

10-Day Weather Forecast

Advertisements
Track Severe Weather on mobile